Time;durP1;ratioP1;P1;durP2;ratioP2;P2;SDS_P1;SDS_P2;PMS_P1;PMS_P2;Temp;Humidity;BMP_temperature;BMP_pressure;BME280_temperature;BME280_humidity;BME280_pressure;Samples;Min_cycle;Max_cycle;Signal;HPM_P1;HPM_P2
2021/11/03 00:00:17;;;;;;;2.17;1.37;;;;;;;;;;5015180;28;20423;-64
2021/11/03 00:02:44;;;;;;;2.97;2.00;;;;;;;;;;5015173;28;20392;-63
2021/11/03 00:05:11;;;;;;;4.63;2.20;;;;;;;;;;5015485;28;20396;-63
2021/11/03 00:07:37;;;;;;;2.80;2.10;;;;;;;;;;5015181;28;20395;-63
2021/11/03 00:10:05;;;;;;;5.23;2.17;;;;;;;;;;5015080;28;20782;-65
2021/11/03 00:12:31;;;;;;;3.80;2.10;;;;;;;;;;5015096;28;20399;-63
2021/11/03 00:14:58;;;;;;;2.70;1.50;;;;;;;;;;5014968;28;20408;-63
2021/11/03 00:17:24;;;;;;;2.00;1.80;;;;;;;;;;5014603;28;20410;-64
2021/11/03 00:19:50;;;;;;;3.40;1.80;;;;;;;;;;5014892;28;20455;-63
2021/11/03 00:22:17;;;;;;;4.37;1.73;;;;;;;;;;5013337;28;20523;-64
2021/11/03 00:24:43;;;;;;;3.07;1.70;;;;;;;;;;5014514;28;20412;-63
2021/11/03 00:27:09;;;;;;;2.87;1.60;;;;;;;;;;5014517;28;20935;-63
2021/11/03 00:29:36;;;;;;;2.00;1.30;;;;;;;;;;5014695;28;20459;-63
2021/11/03 00:32:02;;;;;;;2.80;1.57;;;;;;;;;;5014644;28;20430;-63
2021/11/03 00:34:28;;;;;;;2.17;1.67;;;;;;;;;;5014539;28;20404;-63
2021/11/03 00:36:54;;;;;;;2.60;1.40;;;;;;;;;;5014568;28;20399;-63
2021/11/03 00:39:22;;;;;;;2.07;1.30;;;;;;;;;;5014175;28;20463;-63
2021/11/03 00:41:49;;;;;;;1.80;1.20;;;;;;;;;;5014652;28;20470;-63
2021/11/03 00:44:15;;;;;;;1.60;1.20;;;;;;;;;;5014444;28;20396;-63
2021/11/03 00:46:41;;;;;;;2.07;1.47;;;;;;;;;;5014243;28;20408;-58
2021/11/03 00:49:07;;;;;;;2.43;1.37;;;;;;;;;;5014609;28;20478;-62
2021/11/03 00:51:33;;;;;;;1.97;1.10;;;;;;;;;;5014225;28;20411;-63
2021/11/03 00:53:59;;;;;;;2.73;1.40;;;;;;;;;;5013486;28;20888;-63
2021/11/03 00:56:26;;;;;;;2.07;1.20;;;;;;;;;;5014171;28;20900;-63
2021/11/03 00:58:52;;;;;;;2.37;1.43;;;;;;;;;;5013980;28;20456;-63
2021/11/03 01:01:18;;;;;;;2.43;1.77;;;;;;;;;;5013941;28;20411;-63
2021/11/03 01:03:44;;;;;;;2.10;1.60;;;;;;;;;;5014333;28;20869;-61
2021/11/03 01:06:10;;;;;;;2.17;1.30;;;;;;;;;;5014241;28;20895;-64
2021/11/03 01:08:36;;;;;;;2.17;1.67;;;;;;;;;;5014041;28;20490;-64
2021/11/03 01:11:03;;;;;;;2.20;1.80;;;;;;;;;;5013798;28;20440;-64
2021/11/03 01:13:29;;;;;;;1.97;1.53;;;;;;;;;;5014161;28;20424;-64
2021/11/03 01:15:57;;;;;;;1.83;1.67;;;;;;;;;;5013653;28;20485;-63
2021/11/03 01:18:28;;;;;;;2.20;1.70;;;;;;;;;;5014038;28;20463;-63
2021/11/03 01:20:54;;;;;;;3.23;2.07;;;;;;;;;;5013752;28;20446;-63
2021/11/03 01:23:20;;;;;;;4.37;1.67;;;;;;;;;;5014072;28;20457;-63
2021/11/03 01:25:47;;;;;;;2.10;1.60;;;;;;;;;;5013733;28;20886;-63
2021/11/03 01:28:13;;;;;;;2.60;1.80;;;;;;;;;;5013638;28;20430;-63
2021/11/03 01:30:39;;;;;;;2.83;1.70;;;;;;;;;;5013881;28;20440;-63
2021/11/03 01:33:05;;;;;;;2.43;2.10;;;;;;;;;;5013632;28;20411;-63
2021/11/03 01:35:31;;;;;;;2.03;1.83;;;;;;;;;;5013593;28;20407;-63
2021/11/03 01:37:58;;;;;;;2.70;1.93;;;;;;;;;;5013751;28;20419;-63
2021/11/03 01:40:26;;;;;;;2.10;1.70;;;;;;;;;;5013383;28;20428;-63
2021/11/03 01:42:52;;;;;;;2.50;1.60;;;;;;;;;;5013602;28;20402;-63
2021/11/03 01:45:19;;;;;;;2.20;2.00;;;;;;;;;;5013239;28;20403;-63
2021/11/03 01:47:50;;;;;;;2.17;1.60;;;;;;;;;;5013595;28;20412;-63
2021/11/03 01:50:25;;;;;;;3.10;2.03;;;;;;;;;;5013269;28;20503;-63
2021/11/03 01:52:57;;;;;;;12.40;2.23;;;;;;;;;;5012908;28;20419;-64
2021/11/03 01:55:24;;;;;;;2.63;1.90;;;;;;;;;;5011298;28;20928;-63
2021/11/03 01:57:52;;;;;;;2.63;1.40;;;;;;;;;;5013494;28;20412;-64
2021/11/03 02:00:21;;;;;;;2.20;1.80;;;;;;;;;;5012870;28;20447;-63
2021/11/03 02:02:47;;;;;;;2.17;1.60;;;;;;;;;;5013201;28;20419;-63
2021/11/03 02:05:14;;;;;;;2.40;1.93;;;;;;;;;;5013143;28;20602;-63
2021/11/03 02:07:41;;;;;;;2.47;1.70;;;;;;;;;;5013380;28;20773;-63
2021/11/03 02:10:08;;;;;;;3.10;1.60;;;;;;;;;;5012977;28;20412;-65
2021/11/03 02:12:34;;;;;;;2.10;1.67;;;;;;;;;;5012934;28;20501;-62
2021/11/03 02:15:00;;;;;;;2.50;2.30;;;;;;;;;;5013228;28;20775;-63
2021/11/03 02:17:26;;;;;;;2.40;1.83;;;;;;;;;;5012990;28;20412;-63
2021/11/03 02:19:54;;;;;;;2.07;1.30;;;;;;;;;;5012873;28;20498;-63
2021/11/03 02:22:24;;;;;;;2.53;1.73;;;;;;;;;;5028485;28;20841;-62
2021/11/03 02:25:00;;;;;;;2.80;1.90;;;;;;;;;;5012956;28;20494;-61
2021/11/03 02:27:28;;;;;;;1.80;1.60;;;;;;;;;;5012945;28;20398;-63
2021/11/03 02:29:54;;;;;;;2.30;1.70;;;;;;;;;;5013127;28;20487;-63
2021/11/03 02:32:31;;;;;;;2.57;1.70;;;;;;;;;;5013154;28;20470;-63
2021/11/03 02:34:57;;;;;;;1.87;1.40;;;;;;;;;;5012936;28;20518;-63
2021/11/03 02:37:29;;;;;;;4.13;1.77;;;;;;;;;;5012881;28;20469;-63
2021/11/03 02:39:58;;;;;;;12.03;2.47;;;;;;;;;;5012913;28;20458;-63
2021/11/03 02:42:25;;;;;;;3.00;2.03;;;;;;;;;;5012878;28;20466;-63
2021/11/03 02:44:53;;;;;;;2.07;1.57;;;;;;;;;;5010993;28;20419;-63
2021/11/03 02:47:19;;;;;;;1.83;1.50;;;;;;;;;;5012734;28;20486;-63
2021/11/03 02:49:45;;;;;;;3.70;1.97;;;;;;;;;;5011397;28;21493;-63
2021/11/03 02:52:12;;;;;;;4.17;1.50;;;;;;;;;;5010538;28;21058;-64
2021/11/03 02:54:38;;;;;;;1.90;1.50;;;;;;;;;;5012762;28;20407;-64
2021/11/03 02:57:07;;;;;;;3.20;2.00;;;;;;;;;;5012664;28;20399;-64
2021/11/03 02:59:33;;;;;;;4.37;1.90;;;;;;;;;;5012604;28;21020;-63
2021/11/03 03:02:00;;;;;;;2.07;1.50;;;;;;;;;;5010550;28;20928;-64
2021/11/03 03:04:28;;;;;;;2.90;1.60;;;;;;;;;;5012350;28;20412;-63
2021/11/03 03:06:55;;;;;;;1.60;1.20;;;;;;;;;;5012604;28;20407;-64
2021/11/03 03:09:21;;;;;;;2.10;1.67;;;;;;;;;;5012568;28;20408;-64
2021/11/03 03:11:48;;;;;;;3.13;1.60;;;;;;;;;;5012598;28;20766;-64
2021/11/03 03:14:15;;;;;;;2.03;1.40;;;;;;;;;;5012666;28;20411;-63
2021/11/03 03:16:41;;;;;;;1.77;1.50;;;;;;;;;;5013789;28;20404;-63
2021/11/03 03:19:07;;;;;;;2.10;1.50;;;;;;;;;;5016012;28;20447;-63
2021/11/03 03:21:34;;;;;;;2.03;1.40;;;;;;;;;;5016223;28;20510;-63
2021/11/03 03:24:01;;;;;;;1.80;1.40;;;;;;;;;;5016066;28;20486;-63
2021/11/03 03:26:27;;;;;;;1.70;1.40;;;;;;;;;;5015896;28;20413;-63
2021/11/03 03:28:53;;;;;;;2.00;1.60;;;;;;;;;;5015822;28;20550;-63
2021/11/03 03:31:19;;;;;;;3.57;1.97;;;;;;;;;;5015905;28;20431;-63
2021/11/03 03:33:46;;;;;;;2.20;1.93;;;;;;;;;;5015784;28;20951;-63
2021/11/03 03:36:13;;;;;;;2.17;1.87;;;;;;;;;;5015969;28;20407;-63
2021/11/03 03:38:39;;;;;;;2.07;1.77;;;;;;;;;;5015793;28;20454;-63
2021/11/03 03:41:05;;;;;;;3.17;2.27;;;;;;;;;;5015503;28;20431;-63
2021/11/03 03:43:31;;;;;;;2.50;2.03;;;;;;;;;;5015797;28;20432;-63
2021/11/03 03:45:57;;;;;;;3.87;1.80;;;;;;;;;;5015878;28;20408;-63
2021/11/03 03:48:23;;;;;;;2.10;1.70;;;;;;;;;;5015532;28;20490;-63
2021/11/03 03:50:50;;;;;;;2.37;1.50;;;;;;;;;;5015749;28;20438;-63
2021/11/03 03:53:16;;;;;;;2.40;1.80;;;;;;;;;;5015787;28;20404;-63
2021/11/03 03:55:42;;;;;;;1.90;1.60;;;;;;;;;;5015512;28;20475;-63
2021/11/03 03:58:09;;;;;;;2.00;1.70;;;;;;;;;;5015225;28;20764;-63
2021/11/03 04:00:36;;;;;;;2.70;1.53;;;;;;;;;;5015166;28;20502;-63
2021/11/03 04:03:02;;;;;;;2.23;1.90;;;;;;;;;;5015031;28;20491;-62
2021/11/03 04:05:29;;;;;;;2.03;1.70;;;;;;;;;;5015081;28;20404;-63
2021/11/03 04:07:55;;;;;;;2.50;1.67;;;;;;;;;;5015423;28;20415;-63
2021/11/03 04:10:22;;;;;;;1.83;1.60;;;;;;;;;;5014884;28;20471;-63
2021/11/03 04:12:48;;;;;;;2.50;1.77;;;;;;;;;;5015059;28;20479;-62
2021/11/03 04:15:14;;;;;;;2.40;1.90;;;;;;;;;;5015025;28;20404;-63
2021/11/03 04:17:41;;;;;;;2.20;1.83;;;;;;;;;;5015085;28;20763;-61
2021/11/03 04:20:09;;;;;;;2.60;1.70;;;;;;;;;;5014689;28;20629;-61
2021/11/03 04:22:35;;;;;;;3.00;2.47;;;;;;;;;;5013521;28;20420;-62
2021/11/03 04:25:01;;;;;;;2.50;1.80;;;;;;;;;;5014721;28;20411;-63
2021/11/03 04:27:28;;;;;;;3.27;2.60;;;;;;;;;;5014335;28;20422;-63
2021/11/03 04:29:54;;;;;;;2.63;2.07;;;;;;;;;;5014375;28;20770;-63
2021/11/03 04:32:20;;;;;;;3.67;2.50;;;;;;;;;;5014643;28;20488;-63
2021/11/03 04:34:46;;;;;;;5.00;2.77;;;;;;;;;;5014670;28;20407;-63
2021/11/03 04:37:12;;;;;;;3.50;2.50;;;;;;;;;;5014620;28;20408;-64
2021/11/03 04:39:39;;;;;;;5.27;2.87;;;;;;;;;;5014396;28;20514;-63
2021/11/03 04:42:05;;;;;;;4.10;2.73;;;;;;;;;;5014430;28;20423;-63
2021/11/03 04:44:31;;;;;;;2.80;2.43;;;;;;;;;;5014453;28;20407;-63
2021/11/03 04:46:58;;;;;;;3.80;2.60;;;;;;;;;;5014358;28;20937;-63
2021/11/03 04:49:24;;;;;;;4.67;3.47;;;;;;;;;;5014576;28;20408;-63
2021/11/03 04:51:50;;;;;;;3.77;3.10;;;;;;;;;;5014401;28;20428;-63
2021/11/03 04:54:16;;;;;;;4.57;3.33;;;;;;;;;;5014372;28;20874;-63
2021/11/03 04:56:42;;;;;;;3.53;3.17;;;;;;;;;;5014561;28;20771;-63
2021/11/03 04:59:08;;;;;;;3.70;3.20;;;;;;;;;;5013503;28;20975;-63
2021/11/03 05:01:34;;;;;;;4.57;3.60;;;;;;;;;;5013034;28;20439;-63
2021/11/03 05:04:00;;;;;;;3.80;3.30;;;;;;;;;;5013972;28;20415;-63
2021/11/03 05:06:28;;;;;;;8.13;3.83;;;;;;;;;;5014362;28;20396;-63
2021/11/03 05:08:55;;;;;;;4.90;4.40;;;;;;;;;;5012754;28;20412;-63
2021/11/03 05:11:21;;;;;;;5.03;4.10;;;;;;;;;;5037572;23;20526;-65
2021/11/03 05:13:48;;;;;;;3.83;3.10;;;;;;;;;;5025592;28;20426;-63
2021/11/03 05:16:17;;;;;;;4.80;3.40;;;;;;;;;;5034238;28;20810;-64
2021/11/03 05:18:43;;;;;;;5.43;4.00;;;;;;;;;;5014958;28;20459;-65
2021/11/03 05:21:09;;;;;;;5.83;4.23;;;;;;;;;;5011827;28;20460;-66
2021/11/03 05:23:35;;;;;;;4.83;3.70;;;;;;;;;;5018506;28;20411;-64
2021/11/03 05:26:01;;;;;;;5.07;3.67;;;;;;;;;;5033629;28;20407;-65
2021/11/03 05:28:27;;;;;;;5.37;4.10;;;;;;;;;;5022782;28;20951;-64
2021/11/03 05:30:53;;;;;;;4.73;3.43;;;;;;;;;;5014105;28;20443;-65
2021/11/03 05:33:19;;;;;;;5.57;4.00;;;;;;;;;;5014051;28;20489;-65
2021/11/03 05:35:45;;;;;;;4.10;3.53;;;;;;;;;;5014034;28;20832;-65
2021/11/03 05:38:12;;;;;;;6.07;4.20;;;;;;;;;;5013896;28;20408;-65
2021/11/03 05:40:38;;;;;;;5.60;4.30;;;;;;;;;;5028165;28;20441;-65
2021/11/03 05:43:04;;;;;;;7.00;4.27;;;;;;;;;;5033305;28;20413;-64
2021/11/03 05:45:30;;;;;;;5.10;4.10;;;;;;;;;;5033306;28;20486;-66
2021/11/03 05:47:56;;;;;;;5.23;4.40;;;;;;;;;;5033571;28;20461;-64
2021/11/03 05:50:27;;;;;;;6.23;4.77;;;;;;;;;;5033412;28;20403;-65
2021/11/03 05:52:53;;;;;;;14.17;9.50;;;;;;;;;;5033243;28;20394;-64
2021/11/03 05:55:19;;;;;;;7.53;5.03;;;;;;;;;;5033134;28;20445;-65
2021/11/03 05:57:46;;;;;;;6.47;4.57;;;;;;;;;;5033261;28;20453;-64
2021/11/03 06:00:12;;;;;;;6.97;4.67;;;;;;;;;;5032955;28;20950;-64
2021/11/03 06:02:38;;;;;;;8.30;4.43;;;;;;;;;;5032834;28;20963;-64
2021/11/03 06:05:04;;;;;;;6.07;4.83;;;;;;;;;;5033412;28;20756;-64
2021/11/03 06:07:30;;;;;;;5.90;4.20;;;;;;;;;;5033185;28;20434;-65
2021/11/03 06:09:56;;;;;;;5.23;3.90;;;;;;;;;;5032926;28;20410;-65
2021/11/03 06:12:22;;;;;;;6.33;4.53;;;;;;;;;;5032776;28;20526;-66
2021/11/03 06:14:48;;;;;;;5.80;4.27;;;;;;;;;;5033094;28;20770;-65
2021/11/03 06:17:14;;;;;;;6.47;4.97;;;;;;;;;;5016837;28;20419;-64
2021/11/03 06:19:41;;;;;;;6.93;5.43;;;;;;;;;;5012932;28;20490;-64
2021/11/03 06:22:07;;;;;;;5.90;3.93;;;;;;;;;;5013179;28;20961;-65
2021/11/03 06:24:33;;;;;;;5.40;4.50;;;;;;;;;;5012956;28;20400;-65
2021/11/03 06:27:00;;;;;;;6.23;4.57;;;;;;;;;;5012779;28;20406;-66
2021/11/03 06:29:26;;;;;;;5.80;4.20;;;;;;;;;;5012979;28;20550;-65
2021/11/03 06:31:52;;;;;;;5.53;4.10;;;;;;;;;;5012844;28;20489;-64
2021/11/03 06:34:18;;;;;;;6.10;4.73;;;;;;;;;;5013012;28;20443;-65
2021/11/03 06:36:44;;;;;;;5.03;3.90;;;;;;;;;;5013129;28;20421;-66
2021/11/03 06:39:11;;;;;;;8.43;4.37;;;;;;;;;;5013023;28;20455;-66
2021/11/03 06:41:38;;;;;;;5.37;4.60;;;;;;;;;;5012816;28;20423;-64
2021/11/03 06:44:05;;;;;;;6.93;4.90;;;;;;;;;;5011474;28;20475;-65
2021/11/03 06:46:31;;;;;;;5.47;4.17;;;;;;;;;;5012880;28;20411;-65
2021/11/03 06:48:57;;;;;;;7.93;5.30;;;;;;;;;;5012871;28;20414;-65
2021/11/03 06:51:24;;;;;;;6.63;4.33;;;;;;;;;;5013744;28;20489;-65
2021/11/03 06:53:50;;;;;;;6.10;4.53;;;;;;;;;;5016661;28;20422;-64
2021/11/03 06:56:16;;;;;;;6.30;5.00;;;;;;;;;;5016677;28;20909;-64
2021/11/03 06:58:42;;;;;;;5.80;4.57;;;;;;;;;;5016847;28;20466;-66
2021/11/03 07:01:09;;;;;;;6.27;4.63;;;;;;;;;;5016590;28;20420;-65
2021/11/03 07:03:37;;;;;;;8.20;4.77;;;;;;;;;;5016918;28;20411;-64
2021/11/03 07:06:03;;;;;;;5.40;4.40;;;;;;;;;;5016410;28;20901;-65
2021/11/03 07:08:29;;;;;;;4.40;3.80;;;;;;;;;;5016467;28;20418;-66
2021/11/03 07:10:57;;;;;;;6.77;4.80;;;;;;;;;;5016187;28;20937;-66
2021/11/03 07:13:24;;;;;;;5.93;4.90;;;;;;;;;;5016497;28;20388;-65
2021/11/03 07:15:51;;;;;;;7.07;5.83;;;;;;;;;;5020307;28;20814;-65
2021/11/03 07:18:17;;;;;;;9.20;5.80;;;;;;;;;;5036094;28;20413;-66
2021/11/03 07:20:43;;;;;;;5.77;4.90;;;;;;;;;;5036020;28;20502;-66
2021/11/03 07:23:14;;;;;;;6.40;4.43;;;;;;;;;;5035946;28;20457;-65
2021/11/03 07:25:40;;;;;;;7.00;4.17;;;;;;;;;;5036004;28;20772;-65
2021/11/03 07:28:06;;;;;;;6.07;4.47;;;;;;;;;;5036364;28;20461;-64
2021/11/03 07:30:34;;;;;;;7.70;4.93;;;;;;;;;;5036048;28;20403;-65
2021/11/03 07:33:00;;;;;;;6.07;5.07;;;;;;;;;;5035972;28;20482;-65
2021/11/03 07:35:26;;;;;;;6.30;4.43;;;;;;;;;;5036144;28;20407;-65
2021/11/03 07:37:52;;;;;;;4.90;4.20;;;;;;;;;;5036146;28;20403;-65
2021/11/03 07:40:23;;;;;;;6.33;4.23;;;;;;;;;;5035424;28;20454;-66
2021/11/03 07:42:49;;;;;;;4.40;3.90;;;;;;;;;;5035715;28;20379;-66
2021/11/03 07:45:16;;;;;;;5.83;4.40;;;;;;;;;;5035907;28;20764;-66
2021/11/03 07:47:42;;;;;;;6.30;3.83;;;;;;;;;;5035743;28;20399;-66
2021/11/03 07:50:12;;;;;;;6.03;4.20;;;;;;;;;;5035896;28;20399;-65
2021/11/03 07:52:39;;;;;;;5.20;4.10;;;;;;;;;;5034206;28;20466;-63
2021/11/03 07:55:05;;;;;;;5.43;4.17;;;;;;;;;;5034979;28;20414;-62
2021/11/03 07:57:32;;;;;;;5.30;4.77;;;;;;;;;;5032652;28;20430;-63
2021/11/03 07:59:58;;;;;;;6.43;4.70;;;;;;;;;;5023404;28;20545;-66
2021/11/03 08:02:24;;;;;;;8.60;4.70;;;;;;;;;;5032914;28;20481;-65
2021/11/03 08:04:50;;;;;;;5.60;3.73;;;;;;;;;;5033544;28;20407;-66
2021/11/03 08:07:16;;;;;;;4.40;3.63;;;;;;;;;;5030706;28;20429;-64
2021/11/03 08:09:46;;;;;;;6.33;4.00;;;;;;;;;;5030079;28;20421;-67
2021/11/03 08:12:14;;;;;;;6.53;4.20;;;;;;;;;;5040038;28;20461;-74
2021/11/03 08:14:40;;;;;;;5.67;3.60;;;;;;;;;;5028639;28;20777;-70
2021/11/03 08:17:08;;;;;;;5.90;3.40;;;;;;;;;;5028201;28;20484;-67
2021/11/03 08:19:44;;;;;;;4.50;4.00;;;;;;;;;;5029698;28;20448;-67
2021/11/03 08:22:10;;;;;;;6.70;3.50;;;;;;;;;;5028648;28;20430;-69
2021/11/03 08:24:36;;;;;;;5.93;3.97;;;;;;;;;;5024418;28;20770;-66
2021/11/03 08:27:03;;;;;;;5.23;3.63;;;;;;;;;;5027078;28;20816;-69
2021/11/03 08:29:29;;;;;;;4.13;3.60;;;;;;;;;;5027929;28;20407;-68
2021/11/03 08:31:57;;;;;;;4.13;3.43;;;;;;;;;;5031251;28;20435;-66
2021/11/03 08:34:24;;;;;;;6.80;4.20;;;;;;;;;;5028210;28;20423;-67
2021/11/03 08:36:51;;;;;;;5.40;3.60;;;;;;;;;;5026938;28;20820;-73
2021/11/03 08:39:17;;;;;;;4.43;3.57;;;;;;;;;;5026697;28;20446;-67
2021/11/03 08:41:43;;;;;;;10.97;4.27;;;;;;;;;;5029861;28;20430;-67
2021/11/03 08:44:09;;;;;;;6.10;3.20;;;;;;;;;;5027338;28;20503;-67
2021/11/03 08:46:35;;;;;;;6.33;3.97;;;;;;;;;;5030988;28;20457;-65
2021/11/03 08:49:03;;;;;;;5.17;3.47;;;;;;;;;;5031581;28;20887;-67
2021/11/03 08:51:30;;;;;;;5.80;3.73;;;;;;;;;;5029425;28;20438;-68
2021/11/03 08:53:56;;;;;;;5.20;2.90;;;;;;;;;;5029050;28;20466;-66
2021/11/03 08:56:23;;;;;;;4.87;2.83;;;;;;;;;;5032715;28;20425;-66
2021/11/03 08:58:49;;;;;;;6.63;3.90;;;;;;;;;;5032102;28;20470;-69
2021/11/03 09:01:15;;;;;;;5.43;3.10;;;;;;;;;;5023369;28;20439;-68
2021/11/03 09:03:42;;;;;;;4.70;3.30;;;;;;;;;;5027388;28;20446;-68
2021/11/03 09:06:08;;;;;;;4.13;3.33;;;;;;;;;;5028765;28;20474;-70
2021/11/03 09:08:37;;;;;;;5.20;3.60;;;;;;;;;;5024472;28;20433;-70
2021/11/03 09:11:04;;;;;;;6.03;3.57;;;;;;;;;;5029222;28;20946;-71
2021/11/03 09:13:32;;;;;;;5.60;4.00;;;;;;;;;;5028327;28;20781;-71
2021/11/03 09:15:58;;;;;;;4.93;3.27;;;;;;;;;;5025130;28;20430;-70
2021/11/03 09:18:24;;;;;;;3.17;2.70;;;;;;;;;;5027931;28;20459;-72
2021/11/03 09:20:51;;;;;;;3.90;2.97;;;;;;;;;;5031353;28;20453;-69
2021/11/03 09:23:18;;;;;;;4.40;3.10;;;;;;;;;;5031456;28;20413;-65
2021/11/03 09:25:45;;;;;;;4.30;3.17;;;;;;;;;;5030117;28;20431;-66
2021/11/03 09:28:11;;;;;;;3.77;3.37;;;;;;;;;;5031358;28;20454;-66
2021/11/03 09:30:37;;;;;;;3.50;3.10;;;;;;;;;;5031585;28;20793;-65
2021/11/03 09:33:05;;;;;;;6.80;3.07;;;;;;;;;;5031825;28;20907;-65
2021/11/03 09:35:34;;;;;;;3.13;2.80;;;;;;;;;;5027150;28;20422;-64
2021/11/03 09:38:00;;;;;;;9.83;3.47;;;;;;;;;;5027169;28;20421;-64
2021/11/03 09:40:29;;;;;;;5.50;3.43;;;;;;;;;;5030772;28;20832;-64
2021/11/03 09:42:56;;;;;;;4.20;2.47;;;;;;;;;;5028602;28;20426;-62
2021/11/03 09:45:23;;;;;;;3.80;2.83;;;;;;;;;;5032233;28;20426;-62
2021/11/03 09:48:04;;;;;;;4.13;2.80;;;;;;;;;;5029618;28;20434;-63
2021/11/03 09:50:33;;;;;;;4.27;2.50;;;;;;;;;;5028270;28;20406;-61
2021/11/03 09:53:02;;;;;;;4.10;2.60;;;;;;;;;;5035531;28;20418;-62
2021/11/03 09:55:33;;;;;;;5.40;2.77;;;;;;;;;;5028373;28;20773;-63
2021/11/03 09:58:19;;;;;;;3.80;2.90;;;;;;;;;;5027510;28;20429;-63
2021/11/03 10:00:48;;;;;;;5.70;3.60;;;;;;;;;;5031390;28;20434;-64
2021/11/03 10:03:20;;;;;;;8.33;3.53;;;;;;;;;;5031817;28;20419;-62
2021/11/03 10:06:05;;;;;;;5.40;3.40;;;;;;;;;;5030109;28;20449;-64
2021/11/03 10:08:32;;;;;;;4.73;2.60;;;;;;;;;;5029851;28;20409;-61
2021/11/03 10:11:01;;;;;;;3.40;2.40;;;;;;;;;;5030877;28;20481;-63
2021/11/03 10:13:27;;;;;;;4.67;3.20;;;;;;;;;;5032071;28;20414;-61
2021/11/03 10:15:56;;;;;;;4.80;2.63;;;;;;;;;;5031339;28;20433;-63
2021/11/03 10:18:24;;;;;;;3.63;2.17;;;;;;;;;;5022741;28;20790;-62
2021/11/03 10:21:05;;;;;;;3.53;2.23;;;;;;;;;;5030337;28;20458;-62
2021/11/03 10:23:33;;;;;;;4.40;2.57;;;;;;;;;;5019691;28;20423;-61
2021/11/03 10:26:09;;;;;;;3.03;2.33;;;;;;;;;;5015675;28;20949;-64
2021/11/03 10:28:37;;;;;;;7.60;2.93;;;;;;;;;;5036637;28;20756;-61
2021/11/03 10:31:04;;;;;;;2.63;1.93;;;;;;;;;;5034945;28;20527;-62
2021/11/03 10:33:34;;;;;;;3.07;1.90;;;;;;;;;;5028115;28;20431;-64
2021/11/03 10:36:00;;;;;;;3.83;2.27;;;;;;;;;;5024119;28;20434;-61
2021/11/03 10:38:28;;;;;;;3.20;2.30;;;;;;;;;;5034953;28;20907;-60
2021/11/03 10:41:02;;;;;;;3.63;2.17;;;;;;;;;;5032918;28;20449;-63
2021/11/03 10:43:29;;;;;;;3.90;1.80;;;;;;;;;;5032145;28;20414;-63
2021/11/03 10:46:00;;;;;;;2.63;2.17;;;;;;;;;;5033087;28;20426;-64
2021/11/03 10:48:28;;;;;;;7.13;2.17;;;;;;;;;;5031717;28;20422;-63
2021/11/03 10:50:57;;;;;;;4.50;2.40;;;;;;;;;;5034314;28;20798;-66
2021/11/03 10:53:24;;;;;;;3.20;2.00;;;;;;;;;;5032889;28;20414;-61
2021/11/03 10:56:09;;;;;;;2.57;1.80;;;;;;;;;;5034959;28;20419;-66
2021/11/03 10:58:50;;;;;;;5.67;2.80;;;;;;;;;;5033809;28;20465;-61
2021/11/03 11:01:22;;;;;;;4.93;2.13;;;;;;;;;;5028814;28;20433;-61
2021/11/03 11:03:49;;;;;;;3.00;2.30;;;;;;;;;;5034602;28;20415;-63
2021/11/03 11:06:17;;;;;;;2.97;2.20;;;;;;;;;;5031023;28;20421;-61
2021/11/03 11:08:49;;;;;;;4.87;2.70;;;;;;;;;;5033896;28;20871;-62
2021/11/03 11:11:16;;;;;;;3.13;2.50;;;;;;;;;;5034652;28;20473;-63
2021/11/03 11:13:50;;;;;;;3.87;2.80;;;;;;;;;;5030733;28;20709;-64
2021/11/03 11:16:16;;;;;;;4.80;3.10;;;;;;;;;;5034606;28;20407;-63
2021/11/03 11:18:43;;;;;;;5.53;2.77;;;;;;;;;;5031129;28;20548;-62
2021/11/03 11:21:15;;;;;;;3.33;2.63;;;;;;;;;;5033585;28;20937;-61
2021/11/03 11:23:44;;;;;;;3.13;2.43;;;;;;;;;;5033626;28;20514;-63
2021/11/03 11:26:23;;;;;;;4.00;2.50;;;;;;;;;;5033292;28;20417;-62
2021/11/03 11:29:09;;;;;;;5.60;2.87;;;;;;;;;;5033423;28;20465;-65
2021/11/03 11:31:38;;;;;;;4.30;2.93;;;;;;;;;;5032673;28;20434;-63
2021/11/03 11:34:10;;;;;;;10.50;3.03;;;;;;;;;;5033757;28;20474;-65
2021/11/03 11:36:40;;;;;;;5.93;3.80;;;;;;;;;;5033440;28;20454;-63
2021/11/03 11:39:07;;;;;;;4.10;3.30;;;;;;;;;;5031374;28;20461;-63
2021/11/03 11:41:36;;;;;;;3.30;2.53;;;;;;;;;;5032770;28;20430;-65
2021/11/03 11:44:05;;;;;;;3.10;2.60;;;;;;;;;;5031641;28;20426;-61
2021/11/03 11:46:32;;;;;;;5.43;3.27;;;;;;;;;;5029066;28;20442;-62
2021/11/03 11:49:07;;;;;;;5.37;2.93;;;;;;;;;;5033962;28;20880;-63
2021/11/03 11:51:43;;;;;;;9.60;3.07;;;;;;;;;;5032176;28;20959;-65
2021/11/03 11:54:27;;;;;;;4.97;3.00;;;;;;;;;;5033291;28;20429;-65
2021/11/03 11:57:11;;;;;;;5.50;3.83;;;;;;;;;;5032658;28;20501;-64
2021/11/03 11:59:57;;;;;;;9.60;3.10;;;;;;;;;;5032437;28;20989;-63
2021/11/03 12:02:24;;;;;;;5.80;3.40;;;;;;;;;;5029961;28;20434;-65
2021/11/03 12:05:10;;;;;;;3.43;2.67;;;;;;;;;;5032286;28;20417;-64
2021/11/03 12:07:36;;;;;;;4.53;3.10;;;;;;;;;;5032415;28;20406;-62
2021/11/03 12:10:03;;;;;;;3.77;2.70;;;;;;;;;;5032089;28;20446;-64
2021/11/03 12:12:29;;;;;;;3.07;2.37;;;;;;;;;;5032809;28;20830;-63
2021/11/03 12:14:56;;;;;;;4.67;3.40;;;;;;;;;;5033090;28;20411;-62
2021/11/03 12:17:35;;;;;;;4.87;2.47;;;;;;;;;;5030654;28;20419;-65
2021/11/03 12:20:02;;;;;;;5.50;2.57;;;;;;;;;;5032675;28;20540;-63
2021/11/03 12:22:28;;;;;;;4.30;2.50;;;;;;;;;;5030200;28;20542;-62
2021/11/03 12:24:56;;;;;;;3.70;2.83;;;;;;;;;;5033661;28;20474;-64
2021/11/03 12:27:24;;;;;;;5.20;2.70;;;;;;;;;;5033691;28;20507;-64
2021/11/03 12:30:09;;;;;;;3.20;2.33;;;;;;;;;;5028874;28;20426;-65
2021/11/03 12:32:44;;;;;;;3.33;2.63;;;;;;;;;;5029864;28;20518;-64
2021/11/03 12:35:19;;;;;;;3.80;2.43;;;;;;;;;;5032224;28;20492;-64
2021/11/03 12:37:48;;;;;;;4.17;2.80;;;;;;;;;;5025663;28;20418;-65
2021/11/03 12:40:24;;;;;;;2.70;1.90;;;;;;;;;;5034162;28;20450;-64
2021/11/03 12:43:11;;;;;;;4.70;1.97;;;;;;;;;;5028669;28;20410;-65
2021/11/03 12:45:39;;;;;;;2.87;1.90;;;;;;;;;;5018251;28;20425;-65
2021/11/03 12:48:17;;;;;;;2.30;2.00;;;;;;;;;;5031432;28;20799;-64
2021/11/03 12:50:45;;;;;;;3.20;1.93;;;;;;;;;;5031235;28;20438;-64
2021/11/03 12:53:17;;;;;;;3.60;1.90;;;;;;;;;;5031018;28;20760;-64
2021/11/03 12:55:50;;;;;;;3.33;2.97;;;;;;;;;;5025192;28;20416;-62
2021/11/03 12:58:37;;;;;;;2.83;2.20;;;;;;;;;;5027424;28;20414;-63
2021/11/03 13:01:21;;;;;;;5.37;2.37;;;;;;;;;;5032642;28;20430;-63
2021/11/03 13:03:49;;;;;;;5.77;2.73;;;;;;;;;;5027505;28;20402;-64
2021/11/03 13:06:15;;;;;;;6.10;3.07;;;;;;;;;;5031285;28;20421;-64
2021/11/03 13:08:43;;;;;;;3.50;2.10;;;;;;;;;;5029196;28;20475;-62
2021/11/03 13:11:15;;;;;;;4.53;2.60;;;;;;;;;;5031273;28;20540;-65
2021/11/03 13:13:47;;;;;;;6.40;2.73;;;;;;;;;;5027274;28;20425;-65
2021/11/03 13:16:19;;;;;;;2.60;2.40;;;;;;;;;;5021551;28;20422;-64
2021/11/03 13:18:45;;;;;;;16.33;2.93;;;;;;;;;;5029449;28;20535;-65
2021/11/03 13:21:14;;;;;;;3.97;2.67;;;;;;;;;;5029877;28;20473;-64
2021/11/03 13:23:41;;;;;;;4.50;2.47;;;;;;;;;;5031935;28;20507;-64
2021/11/03 13:26:10;;;;;;;4.53;2.90;;;;;;;;;;5024913;28;20501;-65
2021/11/03 13:28:42;;;;;;;4.23;2.50;;;;;;;;;;5032293;28;20417;-64
2021/11/03 13:31:19;;;;;;;5.07;3.03;;;;;;;;;;5031526;28;20501;-65
2021/11/03 13:33:59;;;;;;;6.83;3.10;;;;;;;;;;5031463;28;20763;-64
2021/11/03 13:36:27;;;;;;;5.33;2.43;;;;;;;;;;5027657;28;20441;-64
2021/11/03 13:38:58;;;;;;;5.50;2.40;;;;;;;;;;5032208;28;20464;-63
2021/11/03 13:41:26;;;;;;;2.70;2.30;;;;;;;;;;5031691;28;20444;-62
2021/11/03 13:44:11;;;;;;;4.77;3.07;;;;;;;;;;5031556;28;20420;-64
2021/11/03 13:46:37;;;;;;;3.50;2.40;;;;;;;;;;5029259;28;20434;-64
2021/11/03 13:49:11;;;;;;;4.00;2.37;;;;;;;;;;5031875;28;20418;-65
2021/11/03 13:51:42;;;;;;;3.30;2.10;;;;;;;;;;5021776;28;20977;-62
2021/11/03 13:54:23;;;;;;;2.77;2.07;;;;;;;;;;5032346;28;20426;-64
2021/11/03 13:56:49;;;;;;;4.37;2.67;;;;;;;;;;5028576;28;20410;-64
2021/11/03 13:59:16;;;;;;;5.63;2.90;;;;;;;;;;5031127;28;20458;-64
2021/11/03 14:01:50;;;;;;;3.63;2.30;;;;;;;;;;5023576;28;20446;-62
2021/11/03 14:04:18;;;;;;;4.43;3.00;;;;;;;;;;5028263;28;20414;-64
2021/11/03 14:07:08;;;;;;;4.80;3.73;;;;;;;;;;5031884;28;20414;-63
2021/11/03 14:09:34;;;;;;;3.77;2.90;;;;;;;;;;5046322;28;20843;-64
2021/11/03 14:12:01;;;;;;;8.07;3.23;;;;;;;;;;5030018;28;20985;-62
2021/11/03 14:14:28;;;;;;;8.17;2.83;;;;;;;;;;5031870;28;20419;-62
2021/11/03 14:16:57;;;;;;;11.97;4.00;;;;;;;;;;5029449;28;20505;-62
2021/11/03 14:19:28;;;;;;;5.47;2.60;;;;;;;;;;5030115;28;20517;-64
2021/11/03 14:21:55;;;;;;;3.90;2.70;;;;;;;;;;5028514;28;20524;-63
2021/11/03 14:24:21;;;;;;;5.83;4.00;;;;;;;;;;5025251;28;20422;-65
2021/11/03 14:26:48;;;;;;;6.83;3.73;;;;;;;;;;5032204;28;20914;-64
2021/11/03 14:29:14;;;;;;;7.40;4.33;;;;;;;;;;5031755;28;20423;-63
2021/11/03 14:31:41;;;;;;;7.20;5.00;;;;;;;;;;5029748;28;20525;-62
2021/11/03 14:34:13;;;;;;;8.50;4.93;;;;;;;;;;5025382;28;20808;-62
2021/11/03 14:36:40;;;;;;;7.07;4.47;;;;;;;;;;5037415;28;20414;-61
2021/11/03 14:39:06;;;;;;;6.93;4.07;;;;;;;;;;5029372;28;20531;-61
2021/11/03 14:41:32;;;;;;;4.40;3.73;;;;;;;;;;5031817;28;20434;-64
2021/11/03 14:44:03;;;;;;;9.63;5.90;;;;;;;;;;5031907;28;20414;-62
2021/11/03 14:46:33;;;;;;;7.13;4.90;;;;;;;;;;5030256;28;20481;-62
2021/11/03 14:49:00;;;;;;;5.90;5.03;;;;;;;;;;5031944;28;20418;-61